createdAt,value
2023-01-26T00:00:54.821Z,78.42
2023-01-26T00:03:22.001Z,78.80
2023-01-26T00:05:48.739Z,79.07
2023-01-26T00:08:15.295Z,79.00
2023-01-26T00:10:50.320Z,78.65
2023-01-26T00:13:22.589Z,78.43
2023-01-26T00:15:49.224Z,78.79
2023-01-26T00:18:15.848Z,78.88
2023-01-26T00:20:42.386Z,78.64
2023-01-26T00:23:08.987Z,78.56
2023-01-26T00:25:38.065Z,78.85
2023-01-26T00:28:04.743Z,79.08
2023-01-26T00:30:31.326Z,78.58
2023-01-26T00:32:58.039Z,78.69
2023-01-26T00:35:24.794Z,78.80
2023-01-26T00:37:51.366Z,78.57
2023-01-26T00:40:17.854Z,78.82
2023-01-26T00:42:44.801Z,78.48
2023-01-26T00:45:11.305Z,78.52
2023-01-26T00:47:38.075Z,78.92
2023-01-26T00:50:05.080Z,78.45
2023-01-26T00:52:31.780Z,77.94
2023-01-26T00:54:59.294Z,78.47
2023-01-26T00:57:25.791Z,78.41
2023-01-26T00:59:52.321Z,78.40
2023-01-26T01:02:18.827Z,78.67
2023-01-26T01:04:45.333Z,78.72
2023-01-26T01:07:12.091Z,78.68
2023-01-26T01:09:38.677Z,78.54
2023-01-26T01:12:05.557Z,78.57
2023-01-26T01:14:32.299Z,78.25
2023-01-26T01:16:58.919Z,78.55
2023-01-26T01:19:25.794Z,78.31
2023-01-26T01:21:52.317Z,78.48
2023-01-26T01:24:18.925Z,78.29
2023-01-26T01:26:45.522Z,78.75
2023-01-26T01:29:13.670Z,78.67
2023-01-26T01:31:41.604Z,78.48
2023-01-26T01:34:09.507Z,78.77
2023-01-26T01:36:36.062Z,78.71
2023-01-26T01:39:03.046Z,78.59
2023-01-26T01:41:29.617Z,78.52
2023-01-26T01:44:15.010Z,78.54
2023-01-26T01:46:46.176Z,78.54
2023-01-26T01:49:34.396Z,78.72
2023-01-26T01:52:08.741Z,78.44
2023-01-26T01:54:45.054Z,78.51
2023-01-26T01:57:17.704Z,78.92
2023-01-26T01:59:46.683Z,78.48
2023-01-26T02:02:14.149Z,78.86
2023-01-26T02:04:41.717Z,78.32
2023-01-26T02:07:09.600Z,78.79
2023-01-26T02:09:57.432Z,78.72
2023-01-26T02:12:29.188Z,78.93
2023-01-26T02:14:57.085Z,78.83
2023-01-26T02:17:23.744Z,78.80
2023-01-26T02:20:04.468Z,78.27
2023-01-26T02:22:51.988Z,78.60
2023-01-26T02:25:42.650Z,78.34
2023-01-26T02:28:09.251Z,78.51
2023-01-26T02:30:35.889Z,78.86
2023-01-26T02:33:02.524Z,78.90
2023-01-26T02:35:29.135Z,78.68
2023-01-26T02:37:55.733Z,78.76
2023-01-26T02:40:46.644Z,78.77
2023-01-26T02:43:15.395Z,78.82
2023-01-26T02:45:41.951Z,78.64
2023-01-26T02:48:08.531Z,78.94
2023-01-26T02:50:35.549Z,79.20
2023-01-26T02:53:02.339Z,79.15
2023-01-26T02:55:30.382Z,79.15
2023-01-26T02:58:02.714Z,78.98
2023-01-26T03:00:37.581Z,79.00
2023-01-26T03:03:15.479Z,79.28
2023-01-26T03:05:42.491Z,78.91
2023-01-26T03:08:09.089Z,79.01
2023-01-26T03:10:37.188Z,79.05
2023-01-26T03:13:04.223Z,79.02
2023-01-26T03:15:42.963Z,78.76
2023-01-26T03:18:34.714Z,78.95
2023-01-26T03:21:26.069Z,78.69
2023-01-26T03:24:11.618Z,78.96
2023-01-26T03:26:57.847Z,79.01
2023-01-26T03:29:26.597Z,79.15
2023-01-26T03:31:56.279Z,79.10
2023-01-26T03:34:23.115Z,79.38
2023-01-26T03:36:49.669Z,79.41
2023-01-26T03:39:36.676Z,79.40
2023-01-26T03:42:23.173Z,79.54
2023-01-26T03:45:08.775Z,79.48
2023-01-26T03:47:56.331Z,79.40
2023-01-26T03:50:42.578Z,79.37
2023-01-26T03:53:32.317Z,79.16
2023-01-26T03:56:20.776Z,79.33
2023-01-26T03:58:50.402Z,79.36
2023-01-26T04:01:21.090Z,79.32
2023-01-26T04:04:09.896Z,79.13
2023-01-26T04:06:57.834Z,79.46
2023-01-26T04:09:24.473Z,79.45
2023-01-26T04:11:51.169Z,79.56
2023-01-26T04:14:38.191Z,78.90
2023-01-26T04:17:37.598Z,78.97
2023-01-26T04:20:24.545Z,78.95
2023-01-26T04:22:51.233Z,79.36
2023-01-26T04:25:20.543Z,78.87
2023-01-26T04:27:47.295Z,79.12
2023-01-26T04:30:16.057Z,78.91
2023-01-26T04:32:44.054Z,78.93
2023-01-26T04:35:10.876Z,78.72
2023-01-26T04:37:38.482Z,78.87
2023-01-26T04:40:06.581Z,78.77
2023-01-26T04:42:34.807Z,78.45
2023-01-26T04:45:03.582Z,78.29
2023-01-26T04:47:30.987Z,77.93
2023-01-26T04:49:57.546Z,77.88
2023-01-26T04:52:24.306Z,77.99
2023-01-26T04:54:51.315Z,77.40
2023-01-26T04:57:21.125Z,78.14
2023-01-26T04:59:49.882Z,78.27
2023-01-26T05:02:18.137Z,78.27
2023-01-26T05:04:44.730Z,78.39
2023-01-26T05:07:12.016Z,78.45
2023-01-26T05:09:38.713Z,78.20
2023-01-26T05:12:37.471Z,78.10
2023-01-26T05:15:12.999Z,78.02
2023-01-26T05:17:59.868Z,78.28
2023-01-26T05:20:47.550Z,77.97
2023-01-26T05:23:16.729Z,78.06
2023-01-26T05:26:01.864Z,77.98
2023-01-26T05:28:29.863Z,78.31
2023-01-26T05:30:56.409Z,78.34
2023-01-26T05:33:23.441Z,78.05
2023-01-26T05:35:51.101Z,78.08
2023-01-26T05:38:18.064Z,78.45
2023-01-26T05:40:45.533Z,78.33
2023-01-26T05:43:12.845Z,78.56
2023-01-26T05:45:46.860Z,78.67
2023-01-26T05:48:14.864Z,78.60
2023-01-26T05:50:41.674Z,77.98
2023-01-26T05:53:17.539Z,78.32
2023-01-26T05:55:45.033Z,77.97
2023-01-26T05:58:12.356Z,78.22
2023-01-26T06:00:39.817Z,78.32
2023-01-26T06:03:16.407Z,78.93
2023-01-26T06:05:43.242Z,78.83
2023-01-26T06:08:20.936Z,78.24
2023-01-26T06:11:07.462Z,78.46
2023-01-26T06:13:52.635Z,78.20
2023-01-26T06:16:24.100Z,78.53
2023-01-26T06:18:51.190Z,78.85
2023-01-26T06:21:18.116Z,78.73
2023-01-26T06:23:44.956Z,78.62
2023-01-26T06:26:12.557Z,78.69
2023-01-26T06:28:39.230Z,78.52
2023-01-26T06:31:07.569Z,78.42
2023-01-26T06:33:35.831Z,78.27
2023-01-26T06:36:03.946Z,78.37
2023-01-26T06:38:30.591Z,78.32
2023-01-26T06:41:03.991Z,77.84
2023-01-26T06:43:33.415Z,78.34
2023-01-26T06:46:00.477Z,77.98
2023-01-26T06:48:28.039Z,78.16
2023-01-26T06:51:04.167Z,78.54
2023-01-26T06:53:34.416Z,78.47
2023-01-26T06:56:20.762Z,78.59
2023-01-26T06:59:05.498Z,78.36
2023-01-26T07:02:06.875Z,77.94
2023-01-26T07:04:33.492Z,78.46
2023-01-26T07:06:59.989Z,78.12
2023-01-26T07:09:26.494Z,78.19
2023-01-26T07:11:53.040Z,78.05
2023-01-26T07:14:27.127Z,78.09
2023-01-26T07:16:53.684Z,78.23
2023-01-26T07:19:20.255Z,78.09
2023-01-26T07:21:46.903Z,78.01
2023-01-26T07:24:13.584Z,77.45
2023-01-26T07:26:40.216Z,77.68
2023-01-26T07:29:06.750Z,77.62
2023-01-26T07:31:33.512Z,77.85
2023-01-26T07:34:00.124Z,78.05
2023-01-26T07:36:26.678Z,78.20
2023-01-26T07:38:53.247Z,78.16
2023-01-26T07:41:19.764Z,78.01
2023-01-26T07:43:46.403Z,78.19
2023-01-26T07:46:13.178Z,78.30
2023-01-26T07:48:40.790Z,78.24
2023-01-26T07:51:09.183Z,78.54
2023-01-26T07:53:39.407Z,77.84
2023-01-26T07:56:07.234Z,77.69
2023-01-26T07:58:35.566Z,77.63
2023-01-26T08:01:10.063Z,77.76
2023-01-26T08:03:36.986Z,77.91
2023-01-26T08:06:04.337Z,78.17
2023-01-26T08:08:31.175Z,77.85
2023-01-26T08:10:58.975Z,77.88
2023-01-26T08:13:34.630Z,77.81
2023-01-26T08:16:12.025Z,77.91
2023-01-26T08:18:39.638Z,78.38
2023-01-26T08:21:06.179Z,78.13
2023-01-26T08:23:32.999Z,78.36
2023-01-26T08:26:08.141Z,78.18
2023-01-26T08:28:35.178Z,78.04
2023-01-26T08:31:06.514Z,78.15
2023-01-26T08:33:33.848Z,77.90
2023-01-26T08:36:08.719Z,77.62
2023-01-26T08:38:35.254Z,77.46
2023-01-26T08:41:02.512Z,77.31
2023-01-26T08:43:29.485Z,77.05
2023-01-26T08:45:56.404Z,77.62
2023-01-26T08:48:22.928Z,77.39
2023-01-26T08:50:54.993Z,77.39
2023-01-26T08:53:22.401Z,77.23
2023-01-26T08:55:48.910Z,77.22
2023-01-26T08:58:15.698Z,77.38
2023-01-26T09:00:42.292Z,77.43
2023-01-26T09:03:08.968Z,77.33
2023-01-26T09:05:37.974Z,77.36
2023-01-26T09:08:05.551Z,76.89
2023-01-26T09:10:32.649Z,77.20
2023-01-26T09:12:59.522Z,77.66
2023-01-26T09:15:26.714Z,77.63
2023-01-26T09:17:53.378Z,77.63
2023-01-26T09:20:20.135Z,77.68
2023-01-26T09:22:47.822Z,77.82
2023-01-26T09:25:14.892Z,77.55
2023-01-26T09:27:41.439Z,77.21
2023-01-26T09:30:08.982Z,76.90
2023-01-26T09:32:35.603Z,76.72
2023-01-26T09:35:02.107Z,77.15
2023-01-26T09:37:28.661Z,76.92
2023-01-26T09:39:55.193Z,76.89
2023-01-26T09:42:42.971Z,76.70
2023-01-26T09:45:12.661Z,76.87
2023-01-26T09:47:54.613Z,76.65
2023-01-26T09:50:31.382Z,76.81
2023-01-26T09:53:02.772Z,76.76
2023-01-26T09:55:30.377Z,76.30
2023-01-26T09:58:03.265Z,76.70
2023-01-26T10:00:38.148Z,76.65
2023-01-26T10:03:18.863Z,76.73
2023-01-26T10:06:01.099Z,76.72
2023-01-26T10:09:08.362Z,76.87
2023-01-26T10:11:43.686Z,76.99
2023-01-26T10:14:21.705Z,77.18
2023-01-26T10:16:49.786Z,77.56
2023-01-26T10:19:35.147Z,77.06
2023-01-26T10:22:06.549Z,77.32
2023-01-26T10:24:33.621Z,77.17
2023-01-26T10:27:00.393Z,76.89
2023-01-26T10:29:26.931Z,77.07
2023-01-26T10:31:55.154Z,77.07
2023-01-26T10:34:26.429Z,76.87
2023-01-26T10:36:53.876Z,77.14
2023-01-26T10:39:20.568Z,77.15
2023-01-26T10:41:59.077Z,77.42
2023-01-26T10:44:43.836Z,77.43
2023-01-26T10:47:13.341Z,77.40
2023-01-26T10:49:39.870Z,77.18
2023-01-26T10:52:08.267Z,77.29
2023-01-26T10:54:36.972Z,76.93
2023-01-26T10:57:07.311Z,77.21
2023-01-26T10:59:58.893Z,77.63
2023-01-26T11:02:28.329Z,77.40
2023-01-26T11:05:02.002Z,77.14
2023-01-26T11:07:33.171Z,77.00
2023-01-26T11:10:16.406Z,77.46
2023-01-26T11:12:43.337Z,77.26
2023-01-26T11:15:23.733Z,77.58
2023-01-26T11:17:52.829Z,77.20
2023-01-26T11:20:40.867Z,77.47
2023-01-26T11:23:22.843Z,77.40
2023-01-26T11:26:30.832Z,77.65
2023-01-26T11:29:39.178Z,77.63
2023-01-26T11:32:26.906Z,77.55
2023-01-26T11:35:15.224Z,77.57
2023-01-26T11:38:02.646Z,77.51
2023-01-26T11:40:59.513Z,77.17
2023-01-26T11:44:14.179Z,77.33
2023-01-26T11:47:01.968Z,77.22
2023-01-26T11:49:38.571Z,77.50
2023-01-26T11:52:20.737Z,77.14
2023-01-26T11:55:24.964Z,77.14
2023-01-26T11:58:14.475Z,77.09
2023-01-26T12:00:44.208Z,76.83
2023-01-26T12:03:19.936Z,76.87
2023-01-26T12:05:51.331Z,76.75
2023-01-26T12:08:25.431Z,76.50
2023-01-26T12:11:25.159Z,76.67
2023-01-26T12:14:16.655Z,76.71
2023-01-26T12:16:43.098Z,76.45
2023-01-26T12:19:13.550Z,76.40
2023-01-26T12:21:44.568Z,76.17
2023-01-26T12:24:48.495Z,76.08
2023-01-26T12:27:16.474Z,75.74
2023-01-26T12:29:52.993Z,75.34
2023-01-26T12:32:19.700Z,75.25
2023-01-26T12:34:46.536Z,75.05
2023-01-26T12:37:41.511Z,75.41
2023-01-26T12:40:41.616Z,75.52
2023-01-26T12:43:32.520Z,74.94
2023-01-26T12:46:00.910Z,74.95
2023-01-26T12:49:10.750Z,74.68
2023-01-26T12:51:43.032Z,74.77
2023-01-26T12:54:20.714Z,74.81
2023-01-26T12:56:53.321Z,74.75
2023-01-26T12:59:47.321Z,74.69
2023-01-26T13:02:24.816Z,74.98
2023-01-26T13:04:51.872Z,75.43
2023-01-26T13:07:37.734Z,75.38
2023-01-26T13:10:20.546Z,75.20
2023-01-26T13:12:59.983Z,75.09
2023-01-26T13:15:31.324Z,74.93
2023-01-26T13:18:02.974Z,74.95
2023-01-26T13:20:46.811Z,74.90
2023-01-26T13:23:43.473Z,74.96
2023-01-26T13:26:17.178Z,74.94
2023-01-26T13:28:44.705Z,74.96
2023-01-26T13:31:12.282Z,75.33
2023-01-26T13:33:40.360Z,75.25
2023-01-26T13:36:14.942Z,75.34
2023-01-26T13:38:44.299Z,75.45
2023-01-26T13:41:18.263Z,75.20
2023-01-26T13:43:50.541Z,75.47
2023-01-26T13:46:35.118Z,75.45
2023-01-26T13:49:02.266Z,75.94
2023-01-26T13:51:31.025Z,75.99
2023-01-26T13:54:01.529Z,76.35
2023-01-26T13:56:30.812Z,76.02
2023-01-26T13:59:12.771Z,76.32
2023-01-26T14:01:44.273Z,76.10
2023-01-26T14:04:21.418Z,76.03
2023-01-26T14:07:10.035Z,75.94
2023-01-26T14:09:45.377Z,76.11
2023-01-26T14:12:19.124Z,76.19
2023-01-26T14:14:48.161Z,76.32
2023-01-26T14:17:36.688Z,76.21
2023-01-26T14:20:27.592Z,76.16
2023-01-26T14:23:18.910Z,76.23
2023-01-26T14:26:01.384Z,76.17
2023-01-26T14:28:36.544Z,76.32
2023-01-26T14:31:29.475Z,76.34
2023-01-26T14:33:58.809Z,76.33
2023-01-26T14:36:27.863Z,76.04
2023-01-26T14:38:55.778Z,76.31
2023-01-26T14:41:28.585Z,76.48
2023-01-26T14:43:59.913Z,76.40
2023-01-26T14:46:51.305Z,76.89
2023-01-26T14:49:43.911Z,76.85
2023-01-26T14:52:25.152Z,77.18
2023-01-26T14:54:56.852Z,76.92
2023-01-26T14:57:27.513Z,76.59
2023-01-26T14:59:56.479Z,76.73
2023-01-26T15:02:25.662Z,76.67
2023-01-26T15:05:00.036Z,76.40
2023-01-26T15:07:39.015Z,76.47
2023-01-26T15:10:27.394Z,76.56
2023-01-26T15:13:03.343Z,76.29
2023-01-26T15:15:31.694Z,76.01
2023-01-26T15:18:13.514Z,76.04
2023-01-26T15:21:07.974Z,76.00
2023-01-26T15:23:41.739Z,75.78
2023-01-26T15:26:11.677Z,75.96
2023-01-26T15:28:38.693Z,75.60
2023-01-26T15:31:05.471Z,75.62
2023-01-26T15:33:40.756Z,75.68
2023-01-26T15:36:21.085Z,75.78
2023-01-26T15:38:47.752Z,75.75
2023-01-26T15:41:14.714Z,75.72
2023-01-26T15:43:41.240Z,76.12
2023-01-26T15:46:09.377Z,76.15
2023-01-26T15:48:36.036Z,75.82
2023-01-26T15:51:02.552Z,75.58
2023-01-26T15:53:29.268Z,75.74
2023-01-26T15:55:57.380Z,75.85
2023-01-26T15:58:24.486Z,75.74
2023-01-26T16:00:51.281Z,75.98
2023-01-26T16:03:19.636Z,76.05
2023-01-26T16:05:48.172Z,76.29
2023-01-26T16:08:15.963Z,76.14
2023-01-26T16:10:43.148Z,76.29
2023-01-26T16:13:10.961Z,76.16
2023-01-26T16:15:43.629Z,76.04
2023-01-26T16:18:11.085Z,76.26
2023-01-26T16:20:39.826Z,76.19
2023-01-26T16:23:16.771Z,76.15
2023-01-26T16:25:43.389Z,76.01
2023-01-26T16:28:09.978Z,75.55
2023-01-26T16:30:36.549Z,75.63
2023-01-26T16:33:03.061Z,76.13
2023-01-26T16:35:29.586Z,76.54
2023-01-26T16:37:56.085Z,76.52
2023-01-26T16:40:22.993Z,76.38
2023-01-26T16:42:51.720Z,76.46
2023-01-26T16:45:23.790Z,76.16
2023-01-26T16:47:54.058Z,76.30
2023-01-26T16:50:21.508Z,76.24
2023-01-26T16:52:48.038Z,76.55
2023-01-26T16:55:16.038Z,76.44
2023-01-26T16:57:44.152Z,76.27
2023-01-26T17:00:14.216Z,75.85
2023-01-26T17:02:41.431Z,76.47
2023-01-26T17:05:13.220Z,76.50
2023-01-26T17:07:39.952Z,76.89
2023-01-26T17:10:07.186Z,76.94
2023-01-26T17:12:33.742Z,76.81
2023-01-26T17:15:00.280Z,76.78
2023-01-26T17:17:28.057Z,76.75
2023-01-26T17:19:55.271Z,76.37
2023-01-26T17:22:21.789Z,76.32
2023-01-26T17:24:48.325Z,76.30
2023-01-26T17:27:14.853Z,76.40
2023-01-26T17:29:42.337Z,76.35
2023-01-26T17:32:08.948Z,76.29
2023-01-26T17:34:35.468Z,76.55
2023-01-26T17:37:02.100Z,76.27
2023-01-26T17:39:28.586Z,76.55
2023-01-26T17:41:55.207Z,76.10
2023-01-26T17:44:21.793Z,76.15
2023-01-26T17:46:48.412Z,76.30
2023-01-26T17:49:14.945Z,75.94
2023-01-26T17:51:42.223Z,76.22
2023-01-26T17:54:08.709Z,76.06
2023-01-26T17:56:35.263Z,76.33
2023-01-26T17:59:01.910Z,76.19
2023-01-26T18:01:28.539Z,76.30
2023-01-26T18:03:55.075Z,75.95
2023-01-26T18:06:21.665Z,76.39
2023-01-26T18:08:48.604Z,75.80
2023-01-26T18:11:16.359Z,76.26
2023-01-26T18:13:43.232Z,76.00
2023-01-26T18:16:13.049Z,75.80
2023-01-26T18:18:39.699Z,76.08
2023-01-26T18:21:29.403Z,75.94
2023-01-26T18:24:03.621Z,76.19
2023-01-26T18:26:32.427Z,76.35
2023-01-26T18:28:59.249Z,76.30
2023-01-26T18:31:31.095Z,75.99
2023-01-26T18:33:58.842Z,75.60
2023-01-26T18:36:26.333Z,75.53
2023-01-26T18:38:55.846Z,75.82
2023-01-26T18:41:23.339Z,76.05
2023-01-26T18:43:51.488Z,76.24
2023-01-26T18:46:18.390Z,75.64
2023-01-26T18:48:45.005Z,75.90
2023-01-26T18:51:11.605Z,75.77
2023-01-26T18:53:41.700Z,75.54
2023-01-26T18:56:10.910Z,75.67
2023-01-26T18:58:38.231Z,75.38
2023-01-26T19:01:09.585Z,75.90
2023-01-26T19:03:37.226Z,76.05
2023-01-26T19:06:05.112Z,76.07
2023-01-26T19:08:32.188Z,76.13
2023-01-26T19:11:05.254Z,75.96
2023-01-26T19:13:31.978Z,75.89
2023-01-26T19:15:59.191Z,76.04
2023-01-26T19:18:25.784Z,76.05
2023-01-26T19:20:56.996Z,76.29
2023-01-26T19:23:23.635Z,76.56
2023-01-26T19:25:50.151Z,76.38
2023-01-26T19:28:16.659Z,76.42
2023-01-26T19:30:44.222Z,76.79
2023-01-26T19:33:28.050Z,76.82
2023-01-26T19:35:58.401Z,76.87
2023-01-26T19:38:25.194Z,76.95
2023-01-26T19:40:52.227Z,77.13
2023-01-26T19:43:19.222Z,77.01
2023-01-26T19:45:52.970Z,76.67
2023-01-26T19:48:24.309Z,77.02
2023-01-26T19:51:21.561Z,77.02
2023-01-26T19:53:50.363Z,77.12
2023-01-26T19:56:30.647Z,76.62
2023-01-26T19:58:59.504Z,76.86
2023-01-26T20:01:27.433Z,77.11
2023-01-26T20:03:58.453Z,77.51
2023-01-26T20:06:27.052Z,77.60
2023-01-26T20:08:54.674Z,77.59
2023-01-26T20:11:25.039Z,77.77
2023-01-26T20:13:59.191Z,77.47
2023-01-26T20:16:28.244Z,77.69
2023-01-26T20:18:55.795Z,77.84
2023-01-26T20:21:22.565Z,78.06
2023-01-26T20:23:54.915Z,78.15
2023-01-26T20:26:22.891Z,78.20
2023-01-26T20:28:49.472Z,78.58
2023-01-26T20:31:18.836Z,78.30
2023-01-26T20:33:49.922Z,78.73
2023-01-26T20:36:19.120Z,78.82
2023-01-26T20:38:46.950Z,78.62
2023-01-26T20:41:16.757Z,78.90
2023-01-26T20:43:57.408Z,78.64
2023-01-26T20:46:27.983Z,78.78
2023-01-26T20:48:55.586Z,78.92
2023-01-26T20:51:24.358Z,78.91
2023-01-26T20:53:51.160Z,78.93
2023-01-26T20:56:20.242Z,79.62
2023-01-26T20:58:46.938Z,79.36
2023-01-26T21:01:15.762Z,79.36
2023-01-26T21:03:42.485Z,79.50
2023-01-26T21:06:11.514Z,79.50
2023-01-26T21:08:38.369Z,79.22
2023-01-26T21:11:07.755Z,79.38
2023-01-26T21:13:35.269Z,78.82
2023-01-26T21:16:01.932Z,79.17
2023-01-26T21:18:28.515Z,79.59
2023-01-26T21:20:57.294Z,79.64
2023-01-26T21:23:23.964Z,79.41
2023-01-26T21:25:57.570Z,79.33
2023-01-26T21:28:24.108Z,79.44
2023-01-26T21:31:15.901Z,79.25
2023-01-26T21:33:45.310Z,79.51
2023-01-26T21:36:14.005Z,79.48
2023-01-26T21:38:43.140Z,79.45
2023-01-26T21:41:31.566Z,79.43
2023-01-26T21:43:59.372Z,79.80
2023-01-26T21:46:25.946Z,80.04
2023-01-26T21:48:52.705Z,79.80
2023-01-26T21:51:38.651Z,80.00
2023-01-26T21:54:07.122Z,79.92
2023-01-26T21:56:34.949Z,80.04
2023-01-26T21:59:03.171Z,79.97
2023-01-26T22:01:31.347Z,79.98
2023-01-26T22:03:59.553Z,79.80
2023-01-26T22:06:26.620Z,80.08
2023-01-26T22:08:53.919Z,79.96
2023-01-26T22:11:21.296Z,80.27
2023-01-26T22:13:47.963Z,80.45
2023-01-26T22:16:14.841Z,79.99
2023-01-26T22:18:41.459Z,80.26
2023-01-26T22:21:08.068Z,80.19
2023-01-26T22:23:36.728Z,80.37
2023-01-26T22:26:08.434Z,80.40
2023-01-26T22:28:35.048Z,80.54
2023-01-26T22:31:04.855Z,80.70
2023-01-26T22:33:32.250Z,80.65
2023-01-26T22:36:00.529Z,80.35
2023-01-26T22:38:27.252Z,80.07
2023-01-26T22:40:53.909Z,80.24
2023-01-26T22:43:21.152Z,80.36
2023-01-26T22:45:47.734Z,80.25
2023-01-26T22:48:14.313Z,80.11
2023-01-26T22:50:40.879Z,80.56
2023-01-26T22:53:07.452Z,80.46
2023-01-26T22:55:34.041Z,80.62
2023-01-26T22:58:00.683Z,80.41
2023-01-26T23:00:27.215Z,80.55
2023-01-26T23:02:53.727Z,80.54
2023-01-26T23:05:20.293Z,80.38
2023-01-26T23:07:46.933Z,80.34
2023-01-26T23:10:13.773Z,80.19
2023-01-26T23:12:40.675Z,80.34
2023-01-26T23:15:07.681Z,80.62
2023-01-26T23:17:34.221Z,80.67
2023-01-26T23:20:00.765Z,80.44
2023-01-26T23:22:27.246Z,80.70
2023-01-26T23:25:12.463Z,80.48
2023-01-26T23:27:39.104Z,80.19
2023-01-26T23:30:06.138Z,80.31
2023-01-26T23:32:32.680Z,80.45
2023-01-26T23:34:59.201Z,80.37
2023-01-26T23:37:25.719Z,80.32
2023-01-26T23:39:52.256Z,80.20
2023-01-26T23:42:18.776Z,80.23
2023-01-26T23:44:45.335Z,80.30
2023-01-26T23:47:11.949Z,80.39
2023-01-26T23:49:38.561Z,80.13
2023-01-26T23:52:05.225Z,80.39
2023-01-26T23:54:31.760Z,80.12
2023-01-26T23:56:58.356Z,80.18
2023-01-26T23:59:24.877Z,80.37
